Benoit, WI (54816)

7:47 PM CDT on August 29, 2015 (GMT -0500)
Moquah North | | Change Station
CLOSE
Current Station
Personal Weather Station
Location: Ashland, WI
Elevation: 1175 ft
Nearby Weather Stations

Elev 1175 ft 46.60 °N, 91.08 °W | Updated 56 seconds ago

Partly Cloudy
Partly Cloudy
68.5 °F
Feels Like 68.5 °F
N
0.0
Wind Variable Wind from SW
Gusts 0.0 mph

Today
High -- | Low -- °F
--% Chance of Precip.
Yesterday
High -- | Low -- °F
Precip. -- in
6:20 AM 7:49 PM
Full, 100% visible
Pressure 29.99 in
Visibility 10.0 miles
Clouds Clear
Dew Point 48 °F
Humidity 48%
Rainfall 0.12 in
Snow Depth Not available.
UV 0 out of 12
Pollen 9.20 out of 12
Air Quality Not available.
Flu Activity Not available.
METAR KASX 292353Z AUTO 20005KT 10SM CLR 22/19 A2999 RMK AO2 SLP155 T02220189 10261 20222 58005
Pressure 29.99 in
Visibility 10.0 miles
Clouds Clear
Dew Point 48 °F
Humidity 48%
Rainfall 0.12 in
Snow Depth Not available.
UV 0 out of 12
Pollen 9.20 out of 12
Air Quality Not available.
Flu Activity Not available.
METAR KASX 292353Z AUTO 20005KT 10SM CLR 22/19 A2999 RMK AO2 SLP155 T02220189 10261 20222 58005

10-Day Weather Forecast

×

Almanac

Astronomy

Aug. 29, 2015 Rise Set
Actual Time
Civil Twilight
Nautical Twilight
Astronomical Twilight
Moon
Length of Visible Light
Length of Day
Tomorrow will be .
, % of the Moon is Illuminated

Today's Extremes

State Highs State Lows

Community

WunderPhotos

Upload Photos

1,850,813 photos uploaded!

WunderBlogs® & News

Nearby

Air Quality

  Air Quality AQ Index Pollutant
Not available.

Snow Depth

Station Depth Elevation

Earthquake Activity

City Distance Mag. Time & Date
Minimum magnitude displayed is 2.5.

Coastal Water Temperatures

Place Temperature

Stations

Nearby Weather Stations

Station Location Temp. Windchill Dew Point Humidity Wind Precip. Elev Updated Type